Time;durP1;ratioP1;P1;durP2;ratioP2;P2;SDS_P1;SDS_P2;PMS_P1;PMS_P2;Temp;Humidity;BMP_temperature;BMP_pressure;BME280_temperature;BME280_humidity;BME280_pressure;Samples;Min_cycle;Max_cycle;Signal;HPM_P1;HPM_P2
2022/12/16 00:00:24;;;;;;;29.33;15.73;;;-4.60;99.90;;;;;;5088001;28;20256;-71
2022/12/16 00:02:52;;;;;;;23.10;15.07;;;-4.60;99.90;;;;;;5074152;28;20306;-70
2022/12/16 00:05:20;;;;;;;20.77;13.53;;;-4.70;99.90;;;;;;5067340;28;20789;-70
2022/12/16 00:07:46;;;;;;;20.27;13.70;;;-4.70;99.90;;;;;;5068099;28;20299;-70
2022/12/16 00:10:15;;;;;;;19.07;12.73;;;-4.70;99.90;;;;;;5067658;28;20294;-71
2022/12/16 00:12:42;;;;;;;20.17;14.07;;;-4.70;99.90;;;;;;5082007;28;20325;-70
2022/12/16 00:15:09;;;;;;;20.03;13.97;;;-4.80;99.90;;;;;;5087419;28;20325;-71
2022/12/16 00:17:38;;;;;;;20.50;13.67;;;-4.70;99.90;;;;;;5086902;28;20290;-70
2022/12/16 00:20:06;;;;;;;22.80;13.97;;;-4.70;99.90;;;;;;5078424;28;20638;-70
2022/12/16 00:22:33;;;;;;;20.53;13.63;;;-4.70;99.90;;;;;;5087719;28;20673;-70
2022/12/16 00:25:00;;;;;;;20.37;13.97;;;-4.70;99.90;;;;;;5087254;28;20213;-70
2022/12/16 00:27:28;;;;;;;20.80;13.37;;;-4.70;99.90;;;;;;5087788;28;20287;-70
2022/12/16 00:29:55;;;;;;;21.23;13.90;;;-4.70;99.90;;;;;;5083198;28;20278;-70
2022/12/16 00:32:22;;;;;;;20.63;14.00;;;-4.70;99.90;;;;;;5077660;28;20285;-70
2022/12/16 00:34:49;;;;;;;19.70;13.73;;;-4.70;99.90;;;;;;5087463;28;20724;-70
2022/12/16 00:37:16;;;;;;;20.07;13.83;;;-4.70;99.90;;;;;;5087507;28;20307;-70
2022/12/16 00:39:42;;;;;;;21.33;13.40;;;-4.70;99.90;;;;;;5083527;28;20274;-71
2022/12/16 00:42:09;;;;;;;25.20;15.00;;;-4.70;99.90;;;;;;5086766;28;20245;-70
2022/12/16 00:44:38;;;;;;;24.57;14.03;;;-4.80;99.90;;;;;;5086694;28;20310;-70
2022/12/16 00:47:04;;;;;;;25.80;15.97;;;-4.80;99.90;;;;;;5086380;28;21056;-70
2022/12/16 00:49:31;;;;;;;23.57;15.47;;;-4.90;99.90;;;;;;5087105;28;20201;-71
2022/12/16 00:51:58;;;;;;;24.80;15.67;;;-4.90;99.90;;;;;;5067116;28;20739;-70
2022/12/16 00:54:25;;;;;;;22.93;14.43;;;-4.90;99.90;;;;;;5073418;28;20692;-71
2022/12/16 00:56:52;;;;;;;20.27;12.83;;;-4.90;99.90;;;;;;5087193;28;20768;-70
2022/12/16 00:59:19;;;;;;;17.00;12.73;;;-4.90;99.90;;;;;;5087146;28;20309;-71
2022/12/16 01:01:47;;;;;;;15.93;12.03;;;-4.90;99.90;;;;;;5086638;28;20297;-71
2022/12/16 01:04:14;;;;;;;17.70;12.73;;;-4.90;99.90;;;;;;5086819;28;20316;-71
2022/12/16 01:06:41;;;;;;;19.63;12.97;;;-4.80;99.90;;;;;;5087042;28;20398;-70
2022/12/16 01:09:08;;;;;;;19.63;13.07;;;-4.80;99.90;;;;;;5086288;28;20318;-70
2022/12/16 01:11:36;;;;;;;19.47;13.63;;;-4.80;99.90;;;;;;5072702;28;20295;-70
2022/12/16 01:14:03;;;;;;;20.23;14.00;;;-4.70;99.90;;;;;;5072304;28;20334;-71
2022/12/16 01:16:30;;;;;;;22.10;13.20;;;-4.70;99.90;;;;;;5074561;28;20215;-70
2022/12/16 01:18:58;;;;;;;19.43;13.53;;;-4.80;99.90;;;;;;5078215;28;20202;-71
2022/12/16 01:21:25;;;;;;;21.47;13.20;;;-4.80;99.90;;;;;;5088398;28;20218;-70
2022/12/16 01:23:52;;;;;;;18.10;12.70;;;-4.80;99.90;;;;;;5088033;28;20301;-69
2022/12/16 01:26:20;;;;;;;20.93;12.67;;;-4.80;99.90;;;;;;5087900;28;20289;-71
2022/12/16 01:28:49;;;;;;;17.57;13.13;;;-4.80;99.90;;;;;;5073968;28;20242;-70
2022/12/16 01:31:18;;;;;;;20.60;13.33;;;-4.90;99.90;;;;;;5067895;28;20585;-70
2022/12/16 01:33:44;;;;;;;20.40;13.13;;;-4.90;99.90;;;;;;5067661;28;20352;-70
2022/12/16 01:36:13;;;;;;;21.50;13.30;;;-4.90;99.90;;;;;;5075650;28;20199;-71
2022/12/16 01:38:43;;;;;;;18.93;13.30;;;-5.00;99.90;;;;;;5088163;28;20298;-71
2022/12/16 01:41:10;;;;;;;18.97;13.37;;;-5.00;99.90;;;;;;5087267;28;20694;-71
2022/12/16 01:43:40;;;;;;;21.00;12.93;;;-5.10;99.90;;;;;;5088123;28;20272;-71
2022/12/16 01:46:16;;;;;;;20.63;13.67;;;-5.10;99.90;;;;;;5087874;28;20578;-71
2022/12/16 01:48:48;;;;;;;19.73;13.60;;;-5.10;99.90;;;;;;5071074;28;20313;-71
2022/12/16 01:51:22;;;;;;;18.83;12.63;;;-5.10;99.90;;;;;;5070965;28;20286;-70
2022/12/16 01:53:53;;;;;;;21.90;14.37;;;-5.10;99.90;;;;;;5067454;28;20219;-70
2022/12/16 01:56:24;;;;;;;18.50;12.93;;;-5.20;99.90;;;;;;5066403;28;20254;-70
2022/12/16 01:58:52;;;;;;;19.83;13.13;;;-5.20;99.90;;;;;;5067103;28;20211;-70
2022/12/16 02:01:19;;;;;;;17.90;12.70;;;-5.20;99.90;;;;;;5066009;28;20212;-70
2022/12/16 02:03:47;;;;;;;17.53;12.17;;;-5.20;99.90;;;;;;5069728;28;20318;-72
2022/12/16 02:06:14;;;;;;;17.53;12.30;;;-5.20;99.90;;;;;;5087675;28;20297;-72
2022/12/16 02:08:42;;;;;;;19.40;12.50;;;-5.20;99.90;;;;;;5087886;28;20245;-71
2022/12/16 02:11:25;;;;;;;22.00;12.97;;;-5.20;99.90;;;;;;5087247;28;20293;-72
2022/12/16 02:14:16;;;;;;;17.17;13.17;;;-5.20;99.90;;;;;;5084471;28;20322;-72
2022/12/16 02:16:51;;;;;;;15.07;11.57;;;-5.20;99.90;;;;;;5067396;28;20648;-72
2022/12/16 02:19:41;;;;;;;16.23;12.33;;;-5.30;99.90;;;;;;5071270;28;20715;-72
2022/12/16 02:22:18;;;;;;;17.97;12.07;;;-5.30;99.90;;;;;;5067168;28;20668;-72
2022/12/16 02:25:28;;;;;;;16.40;11.83;;;-5.30;99.90;;;;;;5084389;28;20213;-72
2022/12/16 02:28:05;;;;;;;19.07;12.13;;;-5.30;99.90;;;;;;5087645;28;20281;-72
2022/12/16 02:31:08;;;;;;;19.90;12.37;;;-5.30;99.90;;;;;;5087165;28;20202;-70
2022/12/16 02:33:51;;;;;;;16.13;11.47;;;-5.30;99.90;;;;;;5086953;28;20462;-70
2022/12/16 02:36:29;;;;;;;18.03;12.30;;;-5.40;99.90;;;;;;5073041;28;20204;-72
2022/12/16 02:38:59;;;;;;;17.67;12.00;;;-5.40;99.90;;;;;;5066661;28;20840;-70
2022/12/16 02:41:36;;;;;;;18.63;12.00;;;-5.50;99.90;;;;;;5086907;28;20238;-70
2022/12/16 02:44:06;;;;;;;17.60;12.00;;;-5.40;99.90;;;;;;5086789;28;20190;-70
2022/12/16 02:46:39;;;;;;;16.97;11.97;;;-5.40;99.90;;;;;;5082807;28;20724;-70
2022/12/16 02:49:08;;;;;;;17.23;12.17;;;-5.30;99.90;;;;;;5066191;28;20286;-70
2022/12/16 02:51:38;;;;;;;18.43;12.87;;;-5.30;99.90;;;;;;5083082;28;20302;-70
2022/12/16 02:54:07;;;;;;;17.70;12.63;;;-5.30;99.90;;;;;;5086166;28;20265;-70
2022/12/16 02:56:49;;;;;;;18.73;12.30;;;-5.30;99.90;;;;;;5086893;28;20289;-71
2022/12/16 02:59:23;;;;;;;16.93;11.97;;;-5.40;99.90;;;;;;5086747;28;20734;-71
2022/12/16 03:01:59;;;;;;;18.93;12.60;;;-5.40;99.90;;;;;;5079261;28;20278;-71
2022/12/16 03:04:31;;;;;;;18.97;12.10;;;-5.40;99.90;;;;;;5066897;28;20325;-71
2022/12/16 03:07:01;;;;;;;18.17;12.77;;;-5.40;99.90;;;;;;5074373;28;20230;-71
2022/12/16 03:09:32;;;;;;;17.57;11.47;;;-5.60;99.90;;;;;;5067585;28;20322;-71
2022/12/16 03:12:03;;;;;;;20.43;11.97;;;-5.50;99.90;;;;;;5065200;28;20287;-71
2022/12/16 03:14:34;;;;;;;18.80;12.33;;;-5.50;99.90;;;;;;5066395;28;20753;-69
2022/12/16 03:17:04;;;;;;;18.73;12.57;;;-5.50;99.90;;;;;;5066403;28;20234;-69
2022/12/16 03:19:31;;;;;;;17.40;11.70;;;-5.50;99.90;;;;;;5066417;28;20211;-70
2022/12/16 03:22:02;;;;;;;19.87;12.90;;;-5.50;99.90;;;;;;5086514;28;20343;-69
2022/12/16 03:24:30;;;;;;;17.10;12.60;;;-5.50;99.90;;;;;;5086113;28;20298;-69
2022/12/16 03:27:03;;;;;;;15.97;11.87;;;-5.50;99.90;;;;;;5086471;28;20238;-70
2022/12/16 03:29:36;;;;;;;18.27;12.03;;;-5.50;99.90;;;;;;5086303;28;20669;-70
2022/12/16 03:32:11;;;;;;;18.40;12.67;;;-5.40;99.90;;;;;;5086666;28;20289;-69
2022/12/16 03:34:42;;;;;;;17.57;12.57;;;-5.40;99.90;;;;;;5070302;28;20219;-70
2022/12/16 03:37:11;;;;;;;20.00;13.10;;;-5.40;99.90;;;;;;5067947;28;20230;-70
2022/12/16 03:39:42;;;;;;;18.73;12.40;;;-5.50;99.90;;;;;;5069979;28;20235;-70
2022/12/16 03:42:10;;;;;;;17.13;12.83;;;-5.40;99.90;;;;;;5069692;28;20251;-70
2022/12/16 03:44:37;;;;;;;19.80;12.53;;;-5.50;99.90;;;;;;5078263;28;20747;-71
2022/12/16 03:47:06;;;;;;;19.57;12.50;;;-5.50;99.90;;;;;;5086759;28;20262;-70
2022/12/16 03:49:33;;;;;;;16.93;12.13;;;-5.60;99.90;;;;;;5069717;28;20199;-70
2022/12/16 03:52:00;;;;;;;18.90;12.37;;;-5.60;99.90;;;;;;5089401;28;20306;-70
2022/12/16 03:54:27;;;;;;;18.60;12.97;;;-5.50;99.90;;;;;;5089459;28;20262;-70
2022/12/16 03:56:54;;;;;;;18.80;11.70;;;-5.50;99.90;;;;;;5089578;28;20252;-70
2022/12/16 03:59:21;;;;;;;20.73;12.80;;;-5.50;99.90;;;;;;5089091;28;20197;-71
2022/12/16 04:01:48;;;;;;;18.20;12.57;;;-5.50;99.90;;;;;;5089837;28;20211;-70
2022/12/16 04:04:17;;;;;;;16.70;12.13;;;-5.50;99.90;;;;;;5083349;28;20693;-71
2022/12/16 04:06:44;;;;;;;18.07;12.17;;;-5.50;99.90;;;;;;5069293;28;20717;-70
2022/12/16 04:09:11;;;;;;;20.20;12.77;;;-5.50;99.90;;;;;;5069175;28;20246;-70
2022/12/16 04:25:29;;;;;;;17.40;12.23;;;-5.70;99.90;;;;;;5080529;28;20229;-72
2022/12/16 04:27:57;;;;;;;17.13;12.53;;;-5.70;99.90;;;;;;5069828;28;20256;-71
2022/12/16 04:30:26;;;;;;;19.87;12.50;;;-5.70;99.90;;;;;;5089539;28;20293;-72
